createdAt,value
2023-01-23T00:01:39.181Z,102125.69
2023-01-23T00:04:08.826Z,102130.88
2023-01-23T00:06:46.042Z,102117.19
2023-01-23T00:09:15.344Z,102128.06
2023-01-23T00:11:44.491Z,102112.13
2023-01-23T00:14:18.872Z,102115.78
2023-01-23T00:16:49.981Z,102123.25
2023-01-23T00:19:19.598Z,102114.72
2023-01-23T00:21:52.442Z,102097.69
2023-01-23T00:24:21.731Z,102114.88
2023-01-23T00:26:50.883Z,102112.91
2023-01-23T00:29:26.782Z,102119.97
2023-01-23T00:31:56.052Z,102121.09
2023-01-23T00:34:25.305Z,102124.41
2023-01-23T00:36:56.419Z,102116.16
2023-01-23T00:39:26.167Z,102111.38
2023-01-23T00:41:55.303Z,102111.38
2023-01-23T00:44:24.646Z,102138.09
2023-01-23T00:46:53.870Z,102125.03
2023-01-23T00:49:30.208Z,102118.84
2023-01-23T00:52:08.249Z,102135.63
2023-01-23T00:54:38.159Z,102121.75
2023-01-23T00:57:07.545Z,102123.81
2023-01-23T00:59:48.601Z,102134.28
2023-01-23T01:02:18.891Z,102140.75
2023-01-23T01:04:49.040Z,102146.38
2023-01-23T01:07:27.678Z,102147.13
2023-01-23T01:09:56.953Z,102146.06
2023-01-23T01:12:32.763Z,102129.47
2023-01-23T01:15:03.106Z,102149.66
2023-01-23T01:17:34.264Z,102145.44
2023-01-23T01:20:05.113Z,102135.16
2023-01-23T01:22:41.428Z,102125.31
2023-01-23T01:25:17.961Z,102139.16
2023-01-23T01:27:52.483Z,102148.06
2023-01-23T01:30:25.065Z,102142.78
2023-01-23T01:32:55.132Z,102146.22
2023-01-23T01:35:30.580Z,102145.31
2023-01-23T01:38:02.023Z,102149.03
2023-01-23T01:40:39.932Z,102142.31
2023-01-23T01:43:21.330Z,102142.03
2023-01-23T01:46:11.070Z,102107.88
2023-01-23T01:48:45.292Z,102150.22
2023-01-23T01:51:24.567Z,102153.53
2023-01-23T01:54:04.390Z,102154.66
2023-01-23T01:56:41.319Z,102156.19
2023-01-23T01:59:23.830Z,102145.53
2023-01-23T02:01:56.534Z,102147.63
2023-01-23T02:04:26.229Z,102143.34
2023-01-23T02:06:57.860Z,102133.25
2023-01-23T02:09:33.218Z,102150.97
2023-01-23T02:12:03.927Z,102143.34
2023-01-23T02:14:33.258Z,102138.81
2023-01-23T02:17:03.198Z,102143.00
2023-01-23T02:19:42.095Z,102146.44
2023-01-23T02:22:24.018Z,102138.84
2023-01-23T02:25:05.132Z,102144.56
2023-01-23T02:27:38.484Z,102129.88
2023-01-23T02:30:09.639Z,102144.59
2023-01-23T02:35:24.972Z,102137.81
2023-01-23T02:37:57.950Z,102122.13
2023-01-23T02:40:33.421Z,102144.34
2023-01-23T02:43:12.886Z,102144.19
2023-01-23T02:45:47.591Z,102136.06
2023-01-23T02:48:18.470Z,102131.00
2023-01-23T02:50:52.928Z,102135.75
2023-01-23T02:53:24.306Z,102136.63
2023-01-23T02:56:01.653Z,102142.06
2023-01-23T02:58:48.705Z,102135.84
2023-01-23T03:01:28.224Z,102139.38
2023-01-23T03:04:08.781Z,102146.09
2023-01-23T03:06:39.308Z,102143.09
2023-01-23T03:09:12.567Z,102153.50
2023-01-23T03:11:45.091Z,102156.28
2023-01-23T03:14:24.114Z,102153.97
2023-01-23T03:16:55.437Z,102150.53
2023-01-23T03:19:31.803Z,102156.75
2023-01-23T03:22:01.357Z,102157.63
2023-01-23T03:24:31.618Z,102155.44
2023-01-23T03:27:01.009Z,102128.16
2023-01-23T03:29:48.875Z,102145.91
2023-01-23T03:32:20.341Z,102152.94
2023-01-23T03:34:59.796Z,102127.16
2023-01-23T03:37:29.801Z,102137.28
2023-01-23T03:40:28.431Z,102143.72
2023-01-23T03:42:59.933Z,102146.44
2023-01-23T03:45:33.420Z,102150.88
2023-01-23T03:48:03.578Z,102128.41
2023-01-23T03:50:35.039Z,102135.97
2023-01-23T03:53:14.581Z,102150.72
2023-01-23T03:55:46.555Z,102151.63
2023-01-23T03:58:16.128Z,102112.25
2023-01-23T04:00:56.811Z,102161.28
2023-01-23T04:06:06.622Z,102163.91
2023-01-23T04:11:22.180Z,102169.47
2023-01-23T04:13:56.626Z,102155.53
2023-01-23T04:16:28.321Z,102160.19
2023-01-23T04:18:57.523Z,102161.22
2023-01-23T04:21:28.932Z,102159.91
2023-01-23T04:24:03.302Z,102171.44
2023-01-23T04:26:34.672Z,102153.22
2023-01-23T04:29:04.369Z,102167.00
2023-01-23T04:31:36.676Z,102146.66
2023-01-23T04:34:06.865Z,102151.22
2023-01-23T04:36:36.288Z,102172.31
2023-01-23T04:39:06.107Z,102168.94
2023-01-23T04:41:36.810Z,102181.75
2023-01-23T04:44:24.488Z,102170.19
2023-01-23T04:47:02.370Z,102185.94
2023-01-23T04:49:32.025Z,102188.63
2023-01-23T04:52:01.245Z,102185.00
2023-01-23T04:54:31.791Z,102172.34
2023-01-23T04:57:07.295Z,102185.25
2023-01-23T04:59:37.336Z,102196.91
2023-01-23T05:02:09.239Z,102197.66
2023-01-23T05:04:48.571Z,102199.94
2023-01-23T05:07:18.951Z,102203.97
2023-01-23T05:10:07.591Z,102206.50
2023-01-23T05:12:47.731Z,102202.22
2023-01-23T05:15:22.421Z,102174.88
2023-01-23T05:17:55.273Z,102204.63
2023-01-23T05:20:30.234Z,102208.53
2023-01-23T05:23:03.426Z,102213.47
2023-01-23T05:25:46.069Z,102215.75
2023-01-23T05:28:15.486Z,102219.69
2023-01-23T05:30:50.251Z,102218.41
2023-01-23T05:33:30.150Z,102228.03
2023-01-23T05:38:36.826Z,102190.31
2023-01-23T05:41:07.887Z,102228.66
2023-01-23T05:43:57.071Z,102210.94
2023-01-23T05:46:47.940Z,102227.28
2023-01-23T05:49:24.542Z,102233.47
2023-01-23T05:51:59.436Z,102235.25
2023-01-23T05:54:29.474Z,102236.38
2023-01-23T05:56:58.675Z,102222.59
2023-01-23T05:59:39.752Z,102242.88
2023-01-23T06:02:33.685Z,102258.06
2023-01-23T06:05:23.410Z,102252.09
2023-01-23T06:08:11.008Z,102250.84
2023-01-23T06:10:51.692Z,102254.13
2023-01-23T06:13:22.383Z,102253.88
2023-01-23T06:15:51.706Z,102226.75
2023-01-23T06:18:25.919Z,102230.06
2023-01-23T06:21:01.932Z,102249.06
2023-01-23T06:23:31.236Z,102258.69
2023-01-23T06:26:03.277Z,102264.75
2023-01-23T06:28:33.667Z,102249.31
2023-01-23T06:31:09.991Z,102259.94
2023-01-23T06:33:59.857Z,102261.59
2023-01-23T06:36:35.863Z,102253.13
2023-01-23T06:39:06.408Z,102257.78
2023-01-23T06:41:46.969Z,102263.97
2023-01-23T06:44:22.011Z,102267.75
2023-01-23T06:46:58.198Z,102268.28
2023-01-23T06:49:27.870Z,102269.81
2023-01-23T06:52:03.004Z,102265.13
2023-01-23T06:54:32.493Z,102266.03
2023-01-23T06:57:10.224Z,102272.59
2023-01-23T06:59:39.647Z,102265.28
2023-01-23T07:02:13.489Z,102233.50
2023-01-23T07:04:48.403Z,102266.28
2023-01-23T07:07:19.824Z,102267.94
2023-01-23T07:09:51.004Z,102240.72
2023-01-23T07:12:32.852Z,102270.94
2023-01-23T07:15:02.082Z,102279.03
2023-01-23T07:17:44.968Z,102268.78
2023-01-23T07:20:21.231Z,102274.09
2023-01-23T07:23:04.799Z,102261.03
2023-01-23T07:25:34.429Z,102273.06
2023-01-23T07:28:03.593Z,102275.94
2023-01-23T07:30:34.032Z,102271.53
2023-01-23T07:33:03.547Z,102266.31
2023-01-23T07:35:33.422Z,102261.28
2023-01-23T07:38:04.497Z,102278.56
2023-01-23T07:40:33.783Z,102273.88
2023-01-23T07:43:09.366Z,102271.22
2023-01-23T07:45:38.552Z,102264.66
2023-01-23T07:48:07.834Z,102267.78
2023-01-23T07:50:39.186Z,102270.72
2023-01-23T07:53:18.075Z,102277.59
2023-01-23T07:55:47.380Z,102221.25
2023-01-23T07:58:16.836Z,102281.16
2023-01-23T08:00:46.198Z,102267.63
2023-01-23T08:03:15.669Z,102278.38
2023-01-23T08:05:49.578Z,102269.47
2023-01-23T08:08:27.468Z,102289.41
2023-01-23T08:10:56.714Z,102285.72
2023-01-23T08:13:30.991Z,102282.09
2023-01-23T08:16:00.408Z,102285.97
2023-01-23T08:18:31.858Z,102289.38
2023-01-23T08:21:03.059Z,102282.16
2023-01-23T08:23:36.060Z,102296.06
2023-01-23T08:26:09.139Z,102292.16
2023-01-23T08:28:49.779Z,102286.19
2023-01-23T08:31:19.690Z,102285.09
2023-01-23T08:33:48.883Z,102261.91
2023-01-23T08:36:18.205Z,102293.34
2023-01-23T08:38:49.480Z,102294.06
2023-01-23T08:41:18.831Z,102291.75
2023-01-23T08:43:48.007Z,102295.03
2023-01-23T08:46:17.501Z,102283.78
2023-01-23T08:48:46.625Z,102304.31
2023-01-23T08:51:16.408Z,102289.13
2023-01-23T08:53:45.621Z,102296.81
2023-01-23T08:56:19.022Z,102286.28
2023-01-23T08:58:48.257Z,102298.88
2023-01-23T09:01:24.575Z,102282.97
2023-01-23T09:03:54.154Z,102296.13
2023-01-23T09:06:25.008Z,102295.84
2023-01-23T09:08:54.580Z,102291.75
2023-01-23T09:11:25.739Z,102297.59
2023-01-23T09:13:55.392Z,102293.22
2023-01-23T09:16:25.121Z,102294.75
2023-01-23T09:18:56.258Z,102296.06
2023-01-23T09:21:25.456Z,102289.88
2023-01-23T09:23:55.172Z,102277.13
2023-01-23T09:26:33.544Z,102301.22
2023-01-23T09:29:06.079Z,102288.75
2023-01-23T09:31:35.316Z,102278.00
2023-01-23T09:34:07.404Z,102276.13
2023-01-23T09:36:42.746Z,102274.09
2023-01-23T09:39:17.786Z,102280.91
2023-01-23T09:41:50.792Z,102279.84
2023-01-23T09:44:24.629Z,102277.66
2023-01-23T09:47:01.811Z,102277.19
2023-01-23T09:49:40.743Z,102274.47
2023-01-23T09:52:19.847Z,102273.72
2023-01-23T09:54:51.764Z,102271.19
2023-01-23T09:57:31.847Z,102271.22
2023-01-23T10:00:06.895Z,102269.47
2023-01-23T10:02:36.565Z,102249.06
2023-01-23T10:05:12.471Z,102253.56
2023-01-23T10:08:03.331Z,102260.06
2023-01-23T10:10:49.968Z,102268.09
2023-01-23T10:13:43.011Z,102265.03
2023-01-23T10:16:23.870Z,102259.72
2023-01-23T10:19:03.207Z,102267.63
2023-01-23T10:21:40.856Z,102254.00
2023-01-23T10:24:27.275Z,102238.41
2023-01-23T10:27:05.749Z,102258.97
2023-01-23T10:29:41.663Z,102258.19
2023-01-23T10:32:23.478Z,102250.75
2023-01-23T10:34:58.455Z,102248.09
2023-01-23T10:37:42.468Z,102262.09
2023-01-23T10:40:15.872Z,102267.88
2023-01-23T10:42:45.128Z,102262.28
2023-01-23T10:45:23.206Z,102239.78
2023-01-23T10:47:55.326Z,102254.84
2023-01-23T10:50:39.149Z,102247.03
2023-01-23T10:53:10.272Z,102250.94
2023-01-23T10:55:47.676Z,102252.47
2023-01-23T10:58:30.492Z,102256.31
2023-01-23T11:01:02.120Z,102251.06
2023-01-23T11:03:34.408Z,102210.88
2023-01-23T11:06:07.033Z,102244.09
2023-01-23T11:08:51.227Z,102240.59
2023-01-23T11:11:30.576Z,102214.41
2023-01-23T11:14:21.316Z,102244.28
2023-01-23T11:17:14.235Z,102242.31
2023-01-23T11:19:47.313Z,102245.09
2023-01-23T11:22:33.208Z,102236.41
2023-01-23T11:25:05.219Z,102244.50
2023-01-23T11:27:34.921Z,102238.59
2023-01-23T11:30:26.942Z,102240.22
2023-01-23T11:32:59.627Z,102243.38
2023-01-23T11:35:46.240Z,102235.03
2023-01-23T11:38:27.199Z,102239.19
2023-01-23T11:40:57.088Z,102245.50
2023-01-23T11:43:29.126Z,102241.31
2023-01-23T11:49:10.566Z,102204.91
2023-01-23T11:51:47.154Z,102249.41
2023-01-23T11:54:37.960Z,102246.69
2023-01-23T11:57:17.941Z,102250.00
2023-01-23T12:00:06.286Z,102249.59
2023-01-23T12:03:05.559Z,102250.47
2023-01-23T12:06:03.008Z,102244.63
2023-01-23T12:08:49.740Z,102243.56
2023-01-23T12:11:21.983Z,102244.34
2023-01-23T12:14:05.351Z,102251.44
2023-01-23T12:16:51.497Z,102252.81
2023-01-23T12:19:37.063Z,102248.72
2023-01-23T12:22:20.825Z,102232.00
2023-01-23T12:25:02.997Z,102248.81
2023-01-23T12:27:43.430Z,102244.63
2023-01-23T12:30:30.620Z,102222.84
2023-01-23T12:33:15.157Z,102240.38
2023-01-23T12:35:54.653Z,102246.75
2023-01-23T12:38:34.369Z,102240.00
2023-01-23T12:41:21.966Z,102238.28
2023-01-23T12:43:58.693Z,102229.56
2023-01-23T12:54:07.922Z,102210.44
2023-01-23T12:56:41.523Z,102234.50
2023-01-23T12:59:21.427Z,102233.38
2023-01-23T13:02:02.592Z,102201.59
2023-01-23T13:04:52.637Z,102223.69
2023-01-23T13:07:31.965Z,102226.34
2023-01-23T13:10:23.465Z,102210.75
2023-01-23T13:13:02.437Z,102228.69
2023-01-23T13:15:41.002Z,102230.44
2023-01-23T13:18:27.657Z,102229.16
2023-01-23T13:21:13.351Z,102221.09
2023-01-23T13:23:42.873Z,102232.47
2023-01-23T13:26:32.185Z,102234.25
2023-01-23T13:29:12.487Z,102227.84
2023-01-23T13:31:46.163Z,102227.22
2023-01-23T13:34:39.155Z,102230.88
2023-01-23T13:37:55.512Z,102223.63
2023-01-23T13:40:26.497Z,102209.84
2023-01-23T13:43:37.433Z,102228.81
2023-01-23T13:46:06.859Z,102232.72
2023-01-23T14:21:39.965Z,102216.25
2023-01-23T14:24:25.059Z,102159.56
2023-01-23T14:27:07.401Z,102212.44
2023-01-23T14:29:37.422Z,102207.13
2023-01-23T14:32:07.130Z,102210.94
2023-01-23T14:34:46.709Z,102199.22
2023-01-23T14:37:16.290Z,102201.00
2023-01-23T14:39:53.137Z,102196.59
2023-01-23T14:42:34.411Z,102197.03
2023-01-23T14:45:04.544Z,102189.72
2023-01-23T14:47:35.344Z,102175.81
2023-01-23T14:50:13.008Z,102188.09
2023-01-23T14:52:42.168Z,102199.47
2023-01-23T14:55:29.791Z,102191.09
2023-01-23T14:58:03.589Z,102197.22
2023-01-23T15:00:33.050Z,102189.59
2023-01-23T15:03:03.904Z,102178.34
2023-01-23T15:05:38.985Z,102189.50
2023-01-23T15:08:20.320Z,102194.22
2023-01-23T15:10:53.305Z,102178.16
2023-01-23T15:13:33.356Z,102197.22
2023-01-23T15:16:16.679Z,102192.91
2023-01-23T15:19:02.388Z,102192.16
2023-01-23T15:21:37.110Z,102190.81
2023-01-23T15:24:30.169Z,102191.22
2023-01-23T15:27:04.465Z,102191.59
2023-01-23T15:29:38.156Z,102123.69
2023-01-23T15:32:22.988Z,102179.91
2023-01-23T15:35:03.089Z,102183.25
2023-01-23T15:37:36.552Z,102174.09
2023-01-23T15:40:18.338Z,102181.66
2023-01-23T15:43:08.132Z,102176.28
2023-01-23T15:45:37.946Z,102170.25
2023-01-23T15:48:08.696Z,102181.66
2023-01-23T15:50:40.008Z,102181.13
2023-01-23T15:53:16.025Z,102176.06
2023-01-23T15:55:50.696Z,102176.56
2023-01-23T15:58:19.917Z,102179.63
2023-01-23T16:00:49.223Z,102176.97
2023-01-23T16:03:18.630Z,102172.25
2023-01-23T16:05:48.558Z,102175.03
2023-01-23T16:08:24.973Z,102170.97
2023-01-23T16:10:58.364Z,102165.66
2023-01-23T16:13:27.687Z,102181.13
2023-01-23T16:16:02.168Z,102169.66
2023-01-23T16:18:32.608Z,102169.38
2023-01-23T16:21:09.143Z,102168.72
2023-01-23T16:23:47.950Z,102156.69
2023-01-23T16:26:22.725Z,102150.63
2023-01-23T16:28:55.387Z,102168.84
2023-01-23T16:31:27.470Z,102168.84
2023-01-23T16:33:58.004Z,102159.69
2023-01-23T16:36:27.637Z,102162.47
2023-01-23T16:39:00.972Z,102169.31
2023-01-23T16:41:30.587Z,102159.03
2023-01-23T16:43:59.895Z,102167.56
2023-01-23T16:46:29.320Z,102100.31
2023-01-23T16:48:59.234Z,102167.56
2023-01-23T16:51:28.755Z,102171.50
2023-01-23T16:54:11.234Z,102159.78
2023-01-23T16:56:50.482Z,102157.06
2023-01-23T16:59:23.229Z,102144.72
2023-01-23T17:01:53.756Z,102156.97
2023-01-23T17:04:27.793Z,102162.16
2023-01-23T17:06:57.278Z,102157.88
2023-01-23T17:09:29.038Z,102158.41
2023-01-23T17:11:59.156Z,102158.56
2023-01-23T17:14:32.373Z,102162.22
2023-01-23T17:17:08.327Z,102158.16
2023-01-23T17:19:41.911Z,102155.16
2023-01-23T17:22:20.476Z,102166.00
2023-01-23T17:24:52.514Z,102106.06
2023-01-23T17:27:24.889Z,102144.00
2023-01-23T17:29:59.471Z,102157.69
2023-01-23T17:32:36.471Z,102165.09
2023-01-23T17:35:21.577Z,102151.16
2023-01-23T17:37:51.695Z,102152.03
2023-01-23T17:40:23.536Z,102150.56
2023-01-23T17:42:53.330Z,102154.44
2023-01-23T17:45:25.807Z,102162.84
2023-01-23T17:47:57.009Z,102152.69
2023-01-23T17:50:28.102Z,102158.00
2023-01-23T17:52:58.100Z,102163.31
2023-01-23T17:55:32.368Z,102160.00
2023-01-23T17:58:08.961Z,102155.16
2023-01-23T18:00:45.737Z,102160.88
2023-01-23T18:03:18.412Z,102160.66
2023-01-23T18:05:53.075Z,102158.34
2023-01-23T18:08:34.089Z,102151.50
2023-01-23T18:11:10.656Z,102148.09
2023-01-23T18:13:49.378Z,102149.06
2023-01-23T18:16:25.464Z,102159.34
2023-01-23T18:19:02.021Z,102150.44
2023-01-23T18:21:32.342Z,102155.41
2023-01-23T18:24:02.396Z,102146.00
2023-01-23T18:26:45.337Z,102135.41
2023-01-23T18:29:30.121Z,102139.94
2023-01-23T18:32:39.804Z,102119.94
2023-01-23T18:35:20.860Z,102120.69
2023-01-23T18:38:01.089Z,102107.25
2023-01-23T18:40:34.626Z,102135.78
2023-01-23T18:43:21.003Z,102137.56
2023-01-23T18:45:51.437Z,102134.78
2023-01-23T18:48:27.474Z,102127.59
2023-01-23T18:51:08.164Z,102140.63
2023-01-23T18:53:48.000Z,102131.66
2023-01-23T18:56:29.846Z,102137.41
2023-01-23T18:59:15.356Z,102105.53
2023-01-23T19:01:52.858Z,102130.44
2023-01-23T19:04:38.339Z,102132.69
2023-01-23T19:07:18.139Z,102131.16
2023-01-23T19:09:49.982Z,102108.25
2023-01-23T19:12:34.151Z,102135.28
2023-01-23T19:15:24.988Z,102127.78
2023-01-23T19:18:06.103Z,102117.19
2023-01-23T19:20:48.077Z,102118.47
2023-01-23T19:23:22.753Z,102126.88
2023-01-23T19:25:52.544Z,102130.63
2023-01-23T19:28:22.292Z,102107.75
2023-01-23T19:30:59.660Z,102120.00
2023-01-23T19:33:29.094Z,102124.84
2023-01-23T19:35:59.524Z,102111.16
2023-01-23T19:38:29.378Z,102125.31
2023-01-23T19:40:58.819Z,102135.91
2023-01-23T19:43:28.853Z,102134.50
2023-01-23T19:46:02.663Z,102112.28
2023-01-23T19:48:32.203Z,102119.34
2023-01-23T19:51:01.434Z,102135.81
2023-01-23T19:53:30.826Z,102134.16
2023-01-23T19:56:01.158Z,102132.63
2023-01-23T19:58:35.643Z,102107.22
2023-01-23T20:01:07.580Z,102117.41
2023-01-23T20:03:47.160Z,102127.25
2023-01-23T20:06:16.764Z,102117.88
2023-01-23T20:08:46.202Z,102122.72
2023-01-23T20:11:22.180Z,102124.34
2023-01-23T20:13:51.449Z,102120.19
2023-01-23T20:16:26.104Z,102116.63
2023-01-23T20:18:56.438Z,102117.88
2023-01-23T20:21:27.368Z,102106.25
2023-01-23T20:23:56.773Z,102124.28
2023-01-23T20:26:26.482Z,102083.41
2023-01-23T20:28:55.770Z,102116.00
2023-01-23T20:31:26.954Z,102123.63
2023-01-23T20:33:56.311Z,102117.03
2023-01-23T20:36:25.589Z,102117.78
2023-01-23T20:38:55.160Z,102110.19
2023-01-23T20:41:30.135Z,102111.06
2023-01-23T20:44:00.402Z,102115.25
2023-01-23T20:46:31.812Z,102097.78
2023-01-23T20:49:01.263Z,102110.19
2023-01-23T20:51:31.090Z,102110.19
2023-01-23T20:54:03.658Z,102094.06
2023-01-23T20:56:32.807Z,102097.59
2023-01-23T20:59:15.094Z,102067.53
2023-01-23T21:02:00.273Z,102092.75
2023-01-23T21:04:31.124Z,102090.09
2023-01-23T21:07:06.627Z,102094.53
2023-01-23T21:09:36.060Z,102098.06
2023-01-23T21:12:05.604Z,102095.84
2023-01-23T21:14:35.194Z,102066.28
2023-01-23T21:17:13.139Z,102086.28
2023-01-23T21:19:42.617Z,102081.72
2023-01-23T21:22:11.886Z,102084.84
2023-01-23T21:24:41.342Z,102090.13
2023-01-23T21:27:10.572Z,102092.56
2023-01-23T21:29:44.067Z,102079.88
2023-01-23T21:32:15.404Z,102080.63
2023-01-23T21:34:49.889Z,102077.88
2023-01-23T21:37:21.694Z,102079.31
2023-01-23T21:40:02.085Z,102087.25
2023-01-23T21:42:37.201Z,102084.84
2023-01-23T21:45:07.415Z,102075.44
2023-01-23T21:47:38.640Z,102081.41
2023-01-23T21:50:17.192Z,102062.94
2023-01-23T21:52:46.663Z,102070.94
2023-01-23T21:55:16.061Z,102074.91
2023-01-23T21:57:45.507Z,102080.00
2023-01-23T22:00:28.625Z,102079.78
2023-01-23T22:02:59.940Z,102082.00
2023-01-23T22:05:29.417Z,102075.25
2023-01-23T22:07:58.719Z,102074.47
2023-01-23T22:10:28.456Z,102084.72
2023-01-23T22:12:57.831Z,102073.66
2023-01-23T22:15:27.467Z,102073.66
2023-01-23T22:18:03.935Z,102069.81
2023-01-23T22:20:38.262Z,102079.94
2023-01-23T22:23:07.564Z,102087.03
2023-01-23T22:25:36.688Z,102080.06
2023-01-23T22:28:06.300Z,102079.31
2023-01-23T22:30:35.999Z,102081.72
2023-01-23T22:33:07.221Z,102079.72
2023-01-23T22:35:40.566Z,102077.72
2023-01-23T22:38:17.583Z,102069.13
2023-01-23T22:40:46.838Z,102061.50
2023-01-23T22:43:16.176Z,102075.41
2023-01-23T22:45:45.255Z,102059.09
2023-01-23T22:48:16.558Z,102068.94
2023-01-23T22:50:45.814Z,102066.50
2023-01-23T22:53:14.970Z,102069.34
2023-01-23T22:58:24.458Z,102064.81
2023-01-23T23:01:05.883Z,102060.72
2023-01-23T23:03:37.360Z,102060.84
2023-01-23T23:06:15.710Z,102055.53
2023-01-23T23:08:47.491Z,102053.09
2023-01-23T23:11:19.569Z,102052.56
2023-01-23T23:13:49.425Z,102057.03
2023-01-23T23:16:22.480Z,102055.47
2023-01-23T23:18:56.155Z,102046.19
2023-01-23T23:21:33.840Z,102054.03
2023-01-23T23:24:04.441Z,102044.88
2023-01-23T23:26:33.864Z,102060.00
2023-01-23T23:29:03.708Z,102057.25
2023-01-23T23:31:37.906Z,102053.06
2023-01-23T23:34:11.137Z,102048.53
2023-01-23T23:36:40.435Z,102043.13
2023-01-23T23:39:09.558Z,102040.38
2023-01-23T23:41:39.058Z,102048.44
2023-01-23T23:44:13.659Z,102046.22
2023-01-23T23:46:42.972Z,102047.31
2023-01-23T23:49:14.132Z,102049.09
2023-01-23T23:54:18.213Z,102032.28
2023-01-23T23:56:48.045Z,102038.16
2023-01-23T23:59:22.946Z,102026.13
